sensor_id;sensor_type;location;lat;lon;timestamp;temperature;humidity
21255;DHT22;10785;50.674;17.954;2022-09-09T00:02:23;16.40;99.90
21255;DHT22;10785;50.674;17.954;2022-09-09T00:04:59;16.30;99.90
21255;DHT22;10785;50.674;17.954;2022-09-09T00:07:40;16.30;99.90
21255;DHT22;10785;50.674;17.954;2022-09-09T00:10:16;16.20;99.90
21255;DHT22;10785;50.674;17.954;2022-09-09T00:12:54;16.20;99.90
21255;DHT22;10785;50.674;17.954;2022-09-09T00:15:25;16.10;99.90
21255;DHT22;10785;50.674;17.954;2022-09-09T00:17:59;16.10;99.90
21255;DHT22;10785;50.674;17.954;2022-09-09T00:20:32;16.00;99.90
21255;DHT22;10785;50.674;17.954;2022-09-09T00:23:09;16.00;99.90
21255;DHT22;10785;50.674;17.954;2022-09-09T00:25:46;15.90;99.90
21255;DHT22;10785;50.674;17.954;2022-09-09T00:28:22;15.90;99.90
21255;DHT22;10785;50.674;17.954;2022-09-09T00:30:51;15.90;99.90
21255;DHT22;10785;50.674;17.954;2022-09-09T00:33:23;15.80;99.90
21255;DHT22;10785;50.674;17.954;2022-09-09T00:35:54;15.80;99.90
21255;DHT22;10785;50.674;17.954;2022-09-09T00:38:28;15.80;99.90
21255;DHT22;10785;50.674;17.954;2022-09-09T00:41:03;15.80;99.90
21255;DHT22;10785;50.674;17.954;2022-09-09T00:43:36;15.70;99.90
21255;DHT22;10785;50.674;17.954;2022-09-09T00:46:41;15.70;99.90
21255;DHT22;10785;50.674;17.954;2022-09-09T00:49:22;15.70;99.90
21255;DHT22;10785;50.674;17.954;2022-09-09T00:52:02;15.60;99.90
21255;DHT22;10785;50.674;17.954;2022-09-09T00:54:40;15.60;99.90
21255;DHT22;10785;50.674;17.954;2022-09-09T00:57:23;15.50;99.90
21255;DHT22;10785;50.674;17.954;2022-09-09T01:00:20;15.50;99.90
21255;DHT22;10785;50.674;17.954;2022-09-09T01:02:57;15.50;99.90
21255;DHT22;10785;50.674;17.954;2022-09-09T01:05:34;15.50;99.90
21255;DHT22;10785;50.674;17.954;2022-09-09T01:08:14;15.40;99.90
21255;DHT22;10785;50.674;17.954;2022-09-09T01:10:50;15.40;99.90
21255;DHT22;10785;50.674;17.954;2022-09-09T01:13:26;15.40;99.90
21255;DHT22;10785;50.674;17.954;2022-09-09T01:16:04;15.30;99.90
21255;DHT22;10785;50.674;17.954;2022-09-09T01:18:38;15.30;99.90
21255;DHT22;10785;50.674;17.954;2022-09-09T01:21:16;15.30;99.90
21255;DHT22;10785;50.674;17.954;2022-09-09T01:24:05;15.20;99.90
21255;DHT22;10785;50.674;17.954;2022-09-09T01:26:58;15.20;99.90
21255;DHT22;10785;50.674;17.954;2022-09-09T01:29:28;15.20;99.90
21255;DHT22;10785;50.674;17.954;2022-09-09T01:31:59;15.20;99.90
21255;DHT22;10785;50.674;17.954;2022-09-09T01:34:33;15.20;99.90
21255;DHT22;10785;50.674;17.954;2022-09-09T01:37:05;15.20;99.90
21255;DHT22;10785;50.674;17.954;2022-09-09T01:39:37;15.20;99.90
21255;DHT22;10785;50.674;17.954;2022-09-09T01:42:14;15.10;99.90
21255;DHT22;10785;50.674;17.954;2022-09-09T01:44:44;15.10;99.90
21255;DHT22;10785;50.674;17.954;2022-09-09T01:47:14;15.10;99.90
21255;DHT22;10785;50.674;17.954;2022-09-09T01:50:15;15.10;99.90
21255;DHT22;10785;50.674;17.954;2022-09-09T01:52:46;15.00;99.90
21255;DHT22;10785;50.674;17.954;2022-09-09T01:55:19;15.00;99.90
21255;DHT22;10785;50.674;17.954;2022-09-09T01:58:01;15.00;99.90
21255;DHT22;10785;50.674;17.954;2022-09-09T02:00:41;15.00;99.90
21255;DHT22;10785;50.674;17.954;2022-09-09T02:03:20;15.10;99.90
21255;DHT22;10785;50.674;17.954;2022-09-09T02:06:02;15.10;99.90
21255;DHT22;10785;50.674;17.954;2022-09-09T02:08:40;15.00;99.90
21255;DHT22;10785;50.674;17.954;2022-09-09T02:11:13;15.00;99.90
21255;DHT22;10785;50.674;17.954;2022-09-09T02:13:51;15.00;99.90
21255;DHT22;10785;50.674;17.954;2022-09-09T02:16:24;14.90;99.90
21255;DHT22;10785;50.674;17.954;2022-09-09T02:19:00;14.90;99.90
21255;DHT22;10785;50.674;17.954;2022-09-09T02:21:40;14.90;99.90
21255;DHT22;10785;50.674;17.954;2022-09-09T02:24:12;14.90;99.90
21255;DHT22;10785;50.674;17.954;2022-09-09T02:26:52;14.90;99.90
21255;DHT22;10785;50.674;17.954;2022-09-09T02:29:27;14.80;99.90
21255;DHT22;10785;50.674;17.954;2022-09-09T02:32:01;14.80;99.90
21255;DHT22;10785;50.674;17.954;2022-09-09T02:34:40;14.80;99.90
21255;DHT22;10785;50.674;17.954;2022-09-09T02:37:11;14.80;99.90
21255;DHT22;10785;50.674;17.954;2022-09-09T02:39:44;14.70;99.90
21255;DHT22;10785;50.674;17.954;2022-09-09T02:42:16;14.70;99.90
21255;DHT22;10785;50.674;17.954;2022-09-09T02:44:47;14.70;99.90
21255;DHT22;10785;50.674;17.954;2022-09-09T02:47:26;14.70;99.90
21255;DHT22;10785;50.674;17.954;2022-09-09T02:50:10;14.70;99.90
21255;DHT22;10785;50.674;17.954;2022-09-09T02:52:52;14.60;99.90
21255;DHT22;10785;50.674;17.954;2022-09-09T02:55:31;14.70;99.90
21255;DHT22;10785;50.674;17.954;2022-09-09T02:58:08;14.70;99.90
21255;DHT22;10785;50.674;17.954;2022-09-09T03:00:40;14.70;99.90
21255;DHT22;10785;50.674;17.954;2022-09-09T03:03:09;14.70;99.90
21255;DHT22;10785;50.674;17.954;2022-09-09T03:05:38;14.60;99.90
21255;DHT22;10785;50.674;17.954;2022-09-09T03:08:10;14.60;99.90
21255;DHT22;10785;50.674;17.954;2022-09-09T03:10:40;14.60;99.90
21255;DHT22;10785;50.674;17.954;2022-09-09T03:13:11;14.60;99.90
21255;DHT22;10785;50.674;17.954;2022-09-09T03:15:42;14.60;99.90
21255;DHT22;10785;50.674;17.954;2022-09-09T03:18:15;14.50;99.90
21255;DHT22;10785;50.674;17.954;2022-09-09T03:20:48;14.50;99.90
21255;DHT22;10785;50.674;17.954;2022-09-09T03:23:17;14.50;99.90
21255;DHT22;10785;50.674;17.954;2022-09-09T03:25:47;14.50;99.90
21255;DHT22;10785;50.674;17.954;2022-09-09T03:28:19;14.60;99.90
21255;DHT22;10785;50.674;17.954;2022-09-09T03:30:51;14.50;99.90
21255;DHT22;10785;50.674;17.954;2022-09-09T03:33:20;14.50;99.90
21255;DHT22;10785;50.674;17.954;2022-09-09T03:35:49;14.50;99.90
21255;DHT22;10785;50.674;17.954;2022-09-09T03:38:19;14.50;99.90
21255;DHT22;10785;50.674;17.954;2022-09-09T03:40:49;14.50;99.90
21255;DHT22;10785;50.674;17.954;2022-09-09T03:43:18;14.50;99.90
21255;DHT22;10785;50.674;17.954;2022-09-09T03:45:48;14.50;99.90
21255;DHT22;10785;50.674;17.954;2022-09-09T03:48:19;14.50;99.90
21255;DHT22;10785;50.674;17.954;2022-09-09T03:50:49;14.50;99.90
21255;DHT22;10785;50.674;17.954;2022-09-09T03:53:20;14.40;99.90
21255;DHT22;10785;50.674;17.954;2022-09-09T03:55:51;14.40;99.90
21255;DHT22;10785;50.674;17.954;2022-09-09T03:58:23;14.40;99.90
21255;DHT22;10785;50.674;17.954;2022-09-09T04:00:59;14.40;99.90
21255;DHT22;10785;50.674;17.954;2022-09-09T04:03:30;14.40;99.90
21255;DHT22;10785;50.674;17.954;2022-09-09T04:06:00;14.40;99.90
21255;DHT22;10785;50.674;17.954;2022-09-09T04:08:31;14.40;99.90
21255;DHT22;10785;50.674;17.954;2022-09-09T04:11:01;14.40;99.90
21255;DHT22;10785;50.674;17.954;2022-09-09T04:13:35;14.40;99.90
21255;DHT22;10785;50.674;17.954;2022-09-09T04:16:09;14.40;99.90
21255;DHT22;10785;50.674;17.954;2022-09-09T04:18:42;14.40;99.90
21255;DHT22;10785;50.674;17.954;2022-09-09T04:21:12;14.40;99.90
21255;DHT22;10785;50.674;17.954;2022-09-09T04:23:40;14.40;99.90
21255;DHT22;10785;50.674;17.954;2022-09-09T04:26:09;14.40;99.90
21255;DHT22;10785;50.674;17.954;2022-09-09T04:28:39;14.50;99.90
21255;DHT22;10785;50.674;17.954;2022-09-09T04:31:16;14.50;99.90
21255;DHT22;10785;50.674;17.954;2022-09-09T04:33:48;14.80;99.90
21255;DHT22;10785;50.674;17.954;2022-09-09T04:36:17;15.30;99.90
21255;DHT22;10785;50.674;17.954;2022-09-09T04:38:51;15.90;99.90
21255;DHT22;10785;50.674;17.954;2022-09-09T04:41:20;16.40;99.90
21255;DHT22;10785;50.674;17.954;2022-09-09T04:43:51;16.90;99.90
21255;DHT22;10785;50.674;17.954;2022-09-09T04:46:22;17.20;99.90
21255;DHT22;10785;50.674;17.954;2022-09-09T04:48:53;17.40;99.90
21255;DHT22;10785;50.674;17.954;2022-09-09T04:51:27;17.40;99.90
21255;DHT22;10785;50.674;17.954;2022-09-09T04:53:55;17.50;99.90
21255;DHT22;10785;50.674;17.954;2022-09-09T04:56:24;17.60;99.90
21255;DHT22;10785;50.674;17.954;2022-09-09T04:58:57;17.50;99.90
21255;DHT22;10785;50.674;17.954;2022-09-09T05:01:37;17.90;99.90
21255;DHT22;10785;50.674;17.954;2022-09-09T05:04:07;18.40;99.90
21255;DHT22;10785;50.674;17.954;2022-09-09T05:06:35;18.70;99.90
21255;DHT22;10785;50.674;17.954;2022-09-09T05:09:05;19.40;99.90
21255;DHT22;10785;50.674;17.954;2022-09-09T05:11:34;19.90;99.90
21255;DHT22;10785;50.674;17.954;2022-09-09T05:14:22;20.50;99.90
21255;DHT22;10785;50.674;17.954;2022-09-09T05:16:51;21.20;99.90
21255;DHT22;10785;50.674;17.954;2022-09-09T05:19:23;21.90;99.90
21255;DHT22;10785;50.674;17.954;2022-09-09T05:21:53;22.30;99.90
21255;DHT22;10785;50.674;17.954;2022-09-09T05:24:28;22.70;99.90
21255;DHT22;10785;50.674;17.954;2022-09-09T05:27:00;23.10;99.90
21255;DHT22;10785;50.674;17.954;2022-09-09T05:29:29;23.30;99.90
21255;DHT22;10785;50.674;17.954;2022-09-09T05:32:02;23.50;99.90
21255;DHT22;10785;50.674;17.954;2022-09-09T05:34:33;23.60;99.90
21255;DHT22;10785;50.674;17.954;2022-09-09T05:37:01;23.60;99.90
21255;DHT22;10785;50.674;17.954;2022-09-09T05:39:32;24.30;99.90
21255;DHT22;10785;50.674;17.954;2022-09-09T05:42:01;24.60;98.10
21255;DHT22;10785;50.674;17.954;2022-09-09T05:44:32;24.80;95.60
21255;DHT22;10785;50.674;17.954;2022-09-09T05:47:01;25.40;94.10
21255;DHT22;10785;50.674;17.954;2022-09-09T05:49:30;25.00;93.30
21255;DHT22;10785;50.674;17.954;2022-09-09T05:52:01;25.40;91.30
21255;DHT22;10785;50.674;17.954;2022-09-09T05:54:31;25.70;88.70
21255;DHT22;10785;50.674;17.954;2022-09-09T05:57:00;26.00;87.10
21255;DHT22;10785;50.674;17.954;2022-09-09T05:59:28;25.70;87.60
21255;DHT22;10785;50.674;17.954;2022-09-09T06:01:59;25.40;89.40
21255;DHT22;10785;50.674;17.954;2022-09-09T06:04:33;25.90;86.40
21255;DHT22;10785;50.674;17.954;2022-09-09T06:07:05;25.40;86.90
21255;DHT22;10785;50.674;17.954;2022-09-09T06:09:35;25.50;87.30
21255;DHT22;10785;50.674;17.954;2022-09-09T06:12:04;25.20;88.80
21255;DHT22;10785;50.674;17.954;2022-09-09T06:14:35;24.80;90.40
21255;DHT22;10785;50.674;17.954;2022-09-09T06:17:04;23.90;92.50
21255;DHT22;10785;50.674;17.954;2022-09-09T06:19:33;23.00;96.20
21255;DHT22;10785;50.674;17.954;2022-09-09T06:22:03;21.90;99.90
21255;DHT22;10785;50.674;17.954;2022-09-09T06:24:35;20.90;99.90
21255;DHT22;10785;50.674;17.954;2022-09-09T06:27:06;20.20;99.90
21255;DHT22;10785;50.674;17.954;2022-09-09T06:29:36;19.70;99.90
21255;DHT22;10785;50.674;17.954;2022-09-09T06:32:05;19.40;99.90
21255;DHT22;10785;50.674;17.954;2022-09-09T06:34:35;19.20;99.90
21255;DHT22;10785;50.674;17.954;2022-09-09T06:37:06;19.10;99.90
21255;DHT22;10785;50.674;17.954;2022-09-09T06:39:40;19.00;99.90
21255;DHT22;10785;50.674;17.954;2022-09-09T06:42:09;18.90;99.90
21255;DHT22;10785;50.674;17.954;2022-09-09T06:44:46;19.00;99.90
21255;DHT22;10785;50.674;17.954;2022-09-09T06:47:24;19.40;99.90
21255;DHT22;10785;50.674;17.954;2022-09-09T06:49:56;19.90;99.90
21255;DHT22;10785;50.674;17.954;2022-09-09T06:52:27;20.50;99.90
21255;DHT22;10785;50.674;17.954;2022-09-09T06:54:56;20.90;99.90
21255;DHT22;10785;50.674;17.954;2022-09-09T06:57:26;21.00;99.90
21255;DHT22;10785;50.674;17.954;2022-09-09T07:00:15;21.30;99.90
21255;DHT22;10785;50.674;17.954;2022-09-09T07:02:44;21.50;99.90
21255;DHT22;10785;50.674;17.954;2022-09-09T07:05:13;21.70;99.90
21255;DHT22;10785;50.674;17.954;2022-09-09T07:07:46;21.60;99.90
21255;DHT22;10785;50.674;17.954;2022-09-09T07:10:18;21.90;99.90
21255;DHT22;10785;50.674;17.954;2022-09-09T07:12:50;21.80;99.90
21255;DHT22;10785;50.674;17.954;2022-09-09T07:15:22;22.10;99.90
21255;DHT22;10785;50.674;17.954;2022-09-09T07:17:52;22.20;99.90
21255;DHT22;10785;50.674;17.954;2022-09-09T07:20:21;21.90;99.90
21255;DHT22;10785;50.674;17.954;2022-09-09T07:22:54;22.30;99.90
21255;DHT22;10785;50.674;17.954;2022-09-09T07:25:23;22.30;99.90
21255;DHT22;10785;50.674;17.954;2022-09-09T07:27:51;22.10;99.90
21255;DHT22;10785;50.674;17.954;2022-09-09T07:30:21;21.80;99.90
21255;DHT22;10785;50.674;17.954;2022-09-09T07:32:54;21.80;99.90
21255;DHT22;10785;50.674;17.954;2022-09-09T07:35:25;21.60;99.90
21255;DHT22;10785;50.674;17.954;2022-09-09T07:37:55;21.00;99.90
21255;DHT22;10785;50.674;17.954;2022-09-09T07:40:25;21.10;99.90
21255;DHT22;10785;50.674;17.954;2022-09-09T07:42:54;21.40;99.90
21255;DHT22;10785;50.674;17.954;2022-09-09T07:45:23;21.20;99.90
21255;DHT22;10785;50.674;17.954;2022-09-09T07:47:51;21.20;99.90
21255;DHT22;10785;50.674;17.954;2022-09-09T07:50:20;21.30;99.90
21255;DHT22;10785;50.674;17.954;2022-09-09T07:52:50;21.00;99.90
21255;DHT22;10785;50.674;17.954;2022-09-09T07:55:22;20.70;99.90
21255;DHT22;10785;50.674;17.954;2022-09-09T07:57:53;20.80;99.90
21255;DHT22;10785;50.674;17.954;2022-09-09T08:00:22;21.00;99.90
21255;DHT22;10785;50.674;17.954;2022-09-09T08:02:55;21.00;99.90
21255;DHT22;10785;50.674;17.954;2022-09-09T08:05:23;21.30;99.90
21255;DHT22;10785;50.674;17.954;2022-09-09T08:07:52;21.40;99.90
21255;DHT22;10785;50.674;17.954;2022-09-09T08:10:23;21.50;99.90
21255;DHT22;10785;50.674;17.954;2022-09-09T08:12:53;21.50;99.90
21255;DHT22;10785;50.674;17.954;2022-09-09T08:15:42;21.70;99.90
21255;DHT22;10785;50.674;17.954;2022-09-09T08:18:12;21.60;99.90
21255;DHT22;10785;50.674;17.954;2022-09-09T08:20:41;21.80;99.90
21255;DHT22;10785;50.674;17.954;2022-09-09T08:23:10;22.00;99.90
21255;DHT22;10785;50.674;17.954;2022-09-09T08:25:39;22.00;99.90
21255;DHT22;10785;50.674;17.954;2022-09-09T08:28:08;21.90;99.90
21255;DHT22;10785;50.674;17.954;2022-09-09T08:30:37;21.80;99.90
21255;DHT22;10785;50.674;17.954;2022-09-09T08:33:06;21.60;99.90
21255;DHT22;10785;50.674;17.954;2022-09-09T08:35:35;21.50;99.90
21255;DHT22;10785;50.674;17.954;2022-09-09T08:38:03;21.40;99.90
21255;DHT22;10785;50.674;17.954;2022-09-09T08:40:42;21.10;99.90
21255;DHT22;10785;50.674;17.954;2022-09-09T08:43:16;21.10;99.90
21255;DHT22;10785;50.674;17.954;2022-09-09T08:45:52;21.10;99.90
21255;DHT22;10785;50.674;17.954;2022-09-09T08:48:39;21.10;99.90
21255;DHT22;10785;50.674;17.954;2022-09-09T08:51:11;21.10;99.90
21255;DHT22;10785;50.674;17.954;2022-09-09T08:53:43;21.30;99.90
21255;DHT22;10785;50.674;17.954;2022-09-09T08:56:18;21.50;99.90
21255;DHT22;10785;50.674;17.954;2022-09-09T08:58:53;21.40;99.90
21255;DHT22;10785;50.674;17.954;2022-09-09T09:01:41;21.30;99.90
21255;DHT22;10785;50.674;17.954;2022-09-09T09:04:31;21.30;99.90
21255;DHT22;10785;50.674;17.954;2022-09-09T09:07:08;21.40;99.90
21255;DHT22;10785;50.674;17.954;2022-09-09T09:09:47;21.70;99.90
21255;DHT22;10785;50.674;17.954;2022-09-09T09:12:21;22.30;99.90
21255;DHT22;10785;50.674;17.954;2022-09-09T09:14:52;22.60;99.90
21255;DHT22;10785;50.674;17.954;2022-09-09T09:17:25;22.80;99.90
21255;DHT22;10785;50.674;17.954;2022-09-09T09:19:55;22.80;99.20
21255;DHT22;10785;50.674;17.954;2022-09-09T09:22:30;22.80;96.50
21255;DHT22;10785;50.674;17.954;2022-09-09T09:25:11;22.80;96.10
21255;DHT22;10785;50.674;17.954;2022-09-09T09:27:52;22.80;95.50
21255;DHT22;10785;50.674;17.954;2022-09-09T09:30:29;23.00;96.40
21255;DHT22;10785;50.674;17.954;2022-09-09T09:33:08;23.10;97.70
21255;DHT22;10785;50.674;17.954;2022-09-09T09:35:41;22.90;96.40
21255;DHT22;10785;50.674;17.954;2022-09-09T09:38:17;23.00;95.70
21255;DHT22;10785;50.674;17.954;2022-09-09T09:41:08;23.00;97.60
21255;DHT22;10785;50.674;17.954;2022-09-09T09:43:40;22.90;94.80
21255;DHT22;10785;50.674;17.954;2022-09-09T09:46:20;23.00;97.50
21255;DHT22;10785;50.674;17.954;2022-09-09T09:48:59;23.00;95.80
21255;DHT22;10785;50.674;17.954;2022-09-09T09:51:30;23.00;95.10
21255;DHT22;10785;50.674;17.954;2022-09-09T09:54:17;23.00;92.40
21255;DHT22;10785;50.674;17.954;2022-09-09T09:56:52;23.10;92.50
21255;DHT22;10785;50.674;17.954;2022-09-09T09:59:32;23.10;90.80
21255;DHT22;10785;50.674;17.954;2022-09-09T10:02:31;23.10;92.50
21255;DHT22;10785;50.674;17.954;2022-09-09T10:05:17;23.10;92.20
21255;DHT22;10785;50.674;17.954;2022-09-09T10:08:04;23.10;90.00
21255;DHT22;10785;50.674;17.954;2022-09-09T10:10:44;23.10;90.90
21255;DHT22;10785;50.674;17.954;2022-09-09T10:13:19;23.10;90.90
21255;DHT22;10785;50.674;17.954;2022-09-09T10:16:01;23.20;90.30
21255;DHT22;10785;50.674;17.954;2022-09-09T10:18:44;23.40;91.00
21255;DHT22;10785;50.674;17.954;2022-09-09T10:21:24;23.40;88.80
21255;DHT22;10785;50.674;17.954;2022-09-09T10:24:11;23.60;89.10
21255;DHT22;10785;50.674;17.954;2022-09-09T10:26:47;23.70;85.80
21255;DHT22;10785;50.674;17.954;2022-09-09T10:29:32;23.80;83.90
21255;DHT22;10785;50.674;17.954;2022-09-09T10:32:19;23.90;86.00
21255;DHT22;10785;50.674;17.954;2022-09-09T10:34:56;23.60;83.40
21255;DHT22;10785;50.674;17.954;2022-09-09T10:37:40;23.50;82.60
21255;DHT22;10785;50.674;17.954;2022-09-09T10:40:26;23.40;83.70
21255;DHT22;10785;50.674;17.954;2022-09-09T10:43:03;23.40;80.70
21255;DHT22;10785;50.674;17.954;2022-09-09T10:45:40;23.20;79.90
21255;DHT22;10785;50.674;17.954;2022-09-09T10:48:24;23.30;80.80
21255;DHT22;10785;50.674;17.954;2022-09-09T10:51:10;23.10;84.30
21255;DHT22;10785;50.674;17.954;2022-09-09T10:53:49;23.00;84.60
21255;DHT22;10785;50.674;17.954;2022-09-09T10:56:21;23.10;84.00
21255;DHT22;10785;50.674;17.954;2022-09-09T10:58:55;23.20;86.30
21255;DHT22;10785;50.674;17.954;2022-09-09T11:01:28;23.40;83.50
21255;DHT22;10785;50.674;17.954;2022-09-09T11:04:05;23.50;84.20
21255;DHT22;10785;50.674;17.954;2022-09-09T11:06:41;23.60;82.40
21255;DHT22;10785;50.674;17.954;2022-09-09T11:09:15;23.60;80.70
21255;DHT22;10785;50.674;17.954;2022-09-09T11:11:48;23.60;82.50
21255;DHT22;10785;50.674;17.954;2022-09-09T11:14:22;23.70;81.40
21255;DHT22;10785;50.674;17.954;2022-09-09T11:16:57;23.70;81.60
21255;DHT22;10785;50.674;17.954;2022-09-09T11:19:33;23.80;81.90
21255;DHT22;10785;50.674;17.954;2022-09-09T11:22:06;23.70;81.50
21255;DHT22;10785;50.674;17.954;2022-09-09T11:24:44;23.90;80.90
21255;DHT22;10785;50.674;17.954;2022-09-09T11:27:19;23.90;79.90
21255;DHT22;10785;50.674;17.954;2022-09-09T11:33:46;24.30;78.90
21255;DHT22;10785;50.674;17.954;2022-09-09T11:36:34;24.40;72.30
21255;DHT22;10785;50.674;17.954;2022-09-09T11:39:18;24.60;74.90
21255;DHT22;10785;50.674;17.954;2022-09-09T11:41:52;24.60;69.80
21255;DHT22;10785;50.674;17.954;2022-09-09T11:44:27;24.60;67.70
21255;DHT22;10785;50.674;17.954;2022-09-09T11:46:56;24.30;70.10
21255;DHT22;10785;50.674;17.954;2022-09-09T11:49:30;24.10;67.80
21255;DHT22;10785;50.674;17.954;2022-09-09T11:52:18;24.00;69.00
21255;DHT22;10785;50.674;17.954;2022-09-09T11:54:49;23.90;66.70
21255;DHT22;10785;50.674;17.954;2022-09-09T11:57:25;23.90;66.10
21255;DHT22;10785;50.674;17.954;2022-09-09T11:59:55;24.00;63.20
21255;DHT22;10785;50.674;17.954;2022-09-09T12:02:26;24.00;58.30
21255;DHT22;10785;50.674;17.954;2022-09-09T12:05:00;23.90;61.40
21255;DHT22;10785;50.674;17.954;2022-09-09T12:07:36;23.80;61.10
21255;DHT22;10785;50.674;17.954;2022-09-09T12:10:23;24.00;58.90
21255;DHT22;10785;50.674;17.954;2022-09-09T12:12:54;24.20;58.80
21255;DHT22;10785;50.674;17.954;2022-09-09T12:15:26;23.90;57.20
21255;DHT22;10785;50.674;17.954;2022-09-09T12:17:57;23.80;56.70
21255;DHT22;10785;50.674;17.954;2022-09-09T12:20:34;23.70;58.30
21255;DHT22;10785;50.674;17.954;2022-09-09T12:23:24;23.60;58.30
21255;DHT22;10785;50.674;17.954;2022-09-09T12:26:01;23.70;59.80
21255;DHT22;10785;50.674;17.954;2022-09-09T12:28:43;24.00;60.10
21255;DHT22;10785;50.674;17.954;2022-09-09T12:31:18;23.80;58.40
21255;DHT22;10785;50.674;17.954;2022-09-09T12:33:50;23.60;57.50
21255;DHT22;10785;50.674;17.954;2022-09-09T12:36:22;23.40;64.50
21255;DHT22;10785;50.674;17.954;2022-09-09T12:38:55;23.40;62.30
21255;DHT22;10785;50.674;17.954;2022-09-09T12:41:25;23.50;62.70
21255;DHT22;10785;50.674;17.954;2022-09-09T12:44:03;23.50;64.20
21255;DHT22;10785;50.674;17.954;2022-09-09T12:46:38;23.60;62.10
21255;DHT22;10785;50.674;17.954;2022-09-09T12:49:25;23.80;62.80
21255;DHT22;10785;50.674;17.954;2022-09-09T12:51:55;23.70;58.30
21255;DHT22;10785;50.674;17.954;2022-09-09T12:54:26;23.70;58.90
21255;DHT22;10785;50.674;17.954;2022-09-09T12:56:55;23.50;59.80
21255;DHT22;10785;50.674;17.954;2022-09-09T12:59:25;23.60;60.90
21255;DHT22;10785;50.674;17.954;2022-09-09T13:01:58;23.50;62.00
21255;DHT22;10785;50.674;17.954;2022-09-09T13:04:26;23.40;63.90
21255;DHT22;10785;50.674;17.954;2022-09-09T13:07:06;23.40;65.20
21255;DHT22;10785;50.674;17.954;2022-09-09T13:09:38;23.40;64.00
21255;DHT22;10785;50.674;17.954;2022-09-09T13:12:13;23.40;64.60
21255;DHT22;10785;50.674;17.954;2022-09-09T13:14:44;23.40;66.30
21255;DHT22;10785;50.674;17.954;2022-09-09T13:17:19;23.40;64.70
21255;DHT22;10785;50.674;17.954;2022-09-09T13:19:49;23.40;67.70
21255;DHT22;10785;50.674;17.954;2022-09-09T13:22:21;23.40;66.60
21255;DHT22;10785;50.674;17.954;2022-09-09T13:25:01;23.40;66.40
21255;DHT22;10785;50.674;17.954;2022-09-09T13:27:32;23.30;68.20
21255;DHT22;10785;50.674;17.954;2022-09-09T13:32:46;23.30;68.80
21255;DHT22;10785;50.674;17.954;2022-09-09T13:35:23;23.30;69.10
21255;DHT22;10785;50.674;17.954;2022-09-09T13:37:52;23.30;68.00
21255;DHT22;10785;50.674;17.954;2022-09-09T13:40:23;23.40;67.50
21255;DHT22;10785;50.674;17.954;2022-09-09T13:42:53;23.40;64.90
21255;DHT22;10785;50.674;17.954;2022-09-09T13:45:25;23.40;65.80
21255;DHT22;10785;50.674;17.954;2022-09-09T13:47:55;23.40;64.50
21255;DHT22;10785;50.674;17.954;2022-09-09T13:50:26;23.40;64.30
21255;DHT22;10785;50.674;17.954;2022-09-09T13:52:56;23.60;65.20
21255;DHT22;10785;50.674;17.954;2022-09-09T13:55:27;23.70;65.30
21255;DHT22;10785;50.674;17.954;2022-09-09T13:57:59;23.50;64.40
21255;DHT22;10785;50.674;17.954;2022-09-09T14:00:30;23.50;61.60
21255;DHT22;10785;50.674;17.954;2022-09-09T14:02:58;23.60;61.40
21255;DHT22;10785;50.674;17.954;2022-09-09T14:05:32;23.70;63.20
21255;DHT22;10785;50.674;17.954;2022-09-09T14:08:02;23.70;62.40
21255;DHT22;10785;50.674;17.954;2022-09-09T14:10:33;23.60;59.80
21255;DHT22;10785;50.674;17.954;2022-09-09T14:13:03;23.50;62.80
21255;DHT22;10785;50.674;17.954;2022-09-09T14:15:31;23.60;61.50
21255;DHT22;10785;50.674;17.954;2022-09-09T14:18:00;23.60;64.90
21255;DHT22;10785;50.674;17.954;2022-09-09T14:20:31;23.60;66.20
21255;DHT22;10785;50.674;17.954;2022-09-09T14:23:00;23.60;64.90
21255;DHT22;10785;50.674;17.954;2022-09-09T14:25:29;23.60;68.00
21255;DHT22;10785;50.674;17.954;2022-09-09T14:28:00;23.60;70.90
21255;DHT22;10785;50.674;17.954;2022-09-09T14:30:29;23.50;70.80
21255;DHT22;10785;50.674;17.954;2022-09-09T14:32:57;23.50;71.00
21255;DHT22;10785;50.674;17.954;2022-09-09T14:35:27;23.50;72.10
21255;DHT22;10785;50.674;17.954;2022-09-09T14:37:56;23.60;71.10
21255;DHT22;10785;50.674;17.954;2022-09-09T14:40:24;23.60;73.30
21255;DHT22;10785;50.674;17.954;2022-09-09T14:42:53;23.60;73.30
21255;DHT22;10785;50.674;17.954;2022-09-09T14:45:24;23.50;74.30
21255;DHT22;10785;50.674;17.954;2022-09-09T14:47:53;23.60;73.60
21255;DHT22;10785;50.674;17.954;2022-09-09T14:50:23;23.50;73.30
21255;DHT22;10785;50.674;17.954;2022-09-09T14:52:51;23.40;77.50
21255;DHT22;10785;50.674;17.954;2022-09-09T14:55:20;23.30;78.40
21255;DHT22;10785;50.674;17.954;2022-09-09T14:57:48;23.10;79.30
21255;DHT22;10785;50.674;17.954;2022-09-09T15:00:17;22.90;79.40
21255;DHT22;10785;50.674;17.954;2022-09-09T15:02:47;22.70;81.40
21255;DHT22;10785;50.674;17.954;2022-09-09T15:05:16;22.60;83.00
21255;DHT22;10785;50.674;17.954;2022-09-09T15:07:46;22.40;84.00
21255;DHT22;10785;50.674;17.954;2022-09-09T15:10:15;22.30;86.00
21255;DHT22;10785;50.674;17.954;2022-09-09T15:12:44;22.10;88.40
21255;DHT22;10785;50.674;17.954;2022-09-09T15:15:12;22.00;90.30
21255;DHT22;10785;50.674;17.954;2022-09-09T15:17:41;22.00;91.80
21255;DHT22;10785;50.674;17.954;2022-09-09T15:20:11;22.00;92.50
21255;DHT22;10785;50.674;17.954;2022-09-09T15:22:41;22.00;92.80
21255;DHT22;10785;50.674;17.954;2022-09-09T15:25:09;22.00;92.80
21255;DHT22;10785;50.674;17.954;2022-09-09T15:27:39;22.00;92.70
21255;DHT22;10785;50.674;17.954;2022-09-09T15:30:09;22.00;93.30
21255;DHT22;10785;50.674;17.954;2022-09-09T15:32:38;22.00;93.00
21255;DHT22;10785;50.674;17.954;2022-09-09T15:35:07;22.00;93.00
21255;DHT22;10785;50.674;17.954;2022-09-09T15:37:37;22.00;94.00
21255;DHT22;10785;50.674;17.954;2022-09-09T15:40:06;21.90;93.80
21255;DHT22;10785;50.674;17.954;2022-09-09T15:42:35;21.80;94.40
21255;DHT22;10785;50.674;17.954;2022-09-09T15:45:04;21.80;94.70
21255;DHT22;10785;50.674;17.954;2022-09-09T15:47:33;21.70;94.90
21255;DHT22;10785;50.674;17.954;2022-09-09T15:50:01;21.70;94.50
21255;DHT22;10785;50.674;17.954;2022-09-09T15:52:30;21.60;95.10
21255;DHT22;10785;50.674;17.954;2022-09-09T15:55:00;21.50;95.80
21255;DHT22;10785;50.674;17.954;2022-09-09T15:57:29;21.50;96.10
21255;DHT22;10785;50.674;17.954;2022-09-09T15:59:57;21.40;96.70
21255;DHT22;10785;50.674;17.954;2022-09-09T16:02:26;21.40;96.40